KIAG/IAG METAR and TAF weather

Enter ICAO airport designator
Station Type Date Time Source
KIAG METAR 2021/04/17 01:53 UTC NOAA

KIAG 170153Z 30007KT 4SM BR BKN007 OVC014 04/04 A2983 RMK AO2 RAB0055E24 CIG 004V010 SLP112 P0000 T00440039


Station Type Date Time Source
KIAG Decoded METAR 2021/04/17 01:53 UTC NOAA

NIAGARA FALLS INTERNATIONAL AIRPORT, NY, United States (KIAG) 43-07N 078-56W 182M
Apr 16, 2021 - 09:53 PM EDT / 2021.04.17 0153 UTC
Wind: from the WNW (300 degrees) at 8 MPH (7 KT):0
Visibility: 4 mile(s):0
Sky conditions: overcast
Weather: mist
Precipitation last hour: A trace
Temperature: 39.9 F (4.4 C)
Dew Point: 39.0 F (3.9 C)
Relative Humidity: 96%
Pressure (altimeter): 29.83 in. Hg (1010 hPa)
ob: KIAG 170153Z 30007KT 4SM BR BKN007 OVC014 04/04 A2983 RMK AO2 RAB0055E24 CIG 004V010 SLP112 P0000 T00440039
cycle: 2

Station Type Date Time Source
KIAG TAF 2021/04/16 22:24 UTC NOAA

TAF
AMD KIAG 162220Z 1622/1718 28010KT P6SM VCSH OVC025
TEMPO 1622/1624 6SM -SHRA BR OVC015
FM170000 29006KT 6SM -SHRA BR OVC015
FM170500 VRB03KT P6SM OVC012
FM171100 00000KT P6SM BKN045
FM171400 VRB03KT P6SM BKN020

Example: see airport list